Time;durP1;ratioP1;P1;durP2;ratioP2;P2;SDS_P1;SDS_P2;PMS_P1;PMS_P2;Temp;Humidity;BMP_temperature;BMP_pressure;BME280_temperature;BME280_humidity;BME280_pressure;Samples;Min_cycle;Max_cycle;Signal;HPM_P1;HPM_P2
2022/06/13 00:01:33;;;;;;;5.15;2.33;;;;;;;;;;4992559;28;20058;-78
2022/06/13 00:03:59;;;;;;;4.65;2.42;;;;;;;;;;4992708;28;20018;-78
2022/06/13 00:06:24;;;;;;;2.30;1.70;;;;;;;;;;4994992;28;20034;-77
2022/06/13 00:08:50;;;;;;;3.30;1.90;;;;;;;;;;4995797;28;20545;-78
2022/06/13 00:11:17;;;;;;;7.03;2.15;;;;;;;;;;4995883;28;20045;-78
2022/06/13 00:13:45;;;;;;;3.92;2.22;;;;;;;;;;4995975;28;20068;-78
2022/06/13 00:16:12;;;;;;;5.05;2.20;;;;;;;;;;4979480;28;20026;-78
2022/06/13 00:18:38;;;;;;;3.50;1.80;;;;;;;;;;4979451;28;20048;-79
2022/06/13 00:21:04;;;;;;;3.38;1.98;;;;;;;;;;4995588;28;20479;-78
2022/06/13 00:23:29;;;;;;;5.20;2.38;;;;;;;;;;4996179;28;20418;-78
2022/06/13 00:25:55;;;;;;;4.07;2.00;;;;;;;;;;4979253;28;20030;-78
2022/06/13 00:28:20;;;;;;;4.68;1.90;;;;;;;;;;4995923;28;20030;-78
2022/06/13 00:30:46;;;;;;;3.67;1.88;;;;;;;;;;4995943;28;20050;-78
2022/06/13 00:33:11;;;;;;;4.28;2.15;;;;;;;;;;4995451;28;20042;-78
2022/06/13 00:35:37;;;;;;;4.53;2.10;;;;;;;;;;4996650;28;20489;-77
2022/06/13 00:38:02;;;;;;;3.45;1.70;;;;;;;;;;4995141;28;20030;-78
2022/06/13 00:40:31;;;;;;;3.08;1.88;;;;;;;;;;4978948;28;20109;-78
2022/06/13 00:42:56;;;;;;;4.22;2.10;;;;;;;;;;4996349;28;20503;-78
2022/06/13 00:45:24;;;;;;;6.15;2.17;;;;;;;;;;4996235;28;20030;-78
2022/06/13 00:47:52;;;;;;;3.85;2.30;;;;;;;;;;4996282;28;20030;-77
2022/06/13 00:50:22;;;;;;;4.07;2.20;;;;;;;;;;4978674;28;20037;-78
2022/06/13 00:52:50;;;;;;;6.15;1.92;;;;;;;;;;4995711;28;20045;-78
2022/06/13 00:55:22;;;;;;;3.80;1.90;;;;;;;;;;4996809;28;20083;-78
2022/06/13 00:57:48;;;;;;;4.07;2.58;;;;;;;;;;4994802;28;20073;-78
2022/06/13 01:00:16;;;;;;;5.78;2.10;;;;;;;;;;4978629;28;20411;-78
2022/06/13 01:02:45;;;;;;;5.20;2.05;;;;;;;;;;4994841;28;20437;-78
2022/06/13 01:05:13;;;;;;;4.28;1.95;;;;;;;;;;4978439;28;20467;-78
2022/06/13 01:07:39;;;;;;;5.20;2.00;;;;;;;;;;4995210;28;20485;-78
2022/06/13 01:12:49;;;;;;;7.00;1.88;;;;;;;;;;4995317;28;20041;-78
2022/06/13 01:15:39;;;;;;;3.83;2.00;;;;;;;;;;4996027;28;20034;-78
2022/06/13 01:18:17;;;;;;;2.75;1.92;;;;;;;;;;4994934;28;20157;-78
2022/06/13 01:20:51;;;;;;;3.88;2.13;;;;;;;;;;4995566;28;20031;-78
2022/06/13 01:23:35;;;;;;;;;;;;;;;;;;4995250;28;20164;-78
2022/06/13 01:26:37;;;;;;;3.30;1.80;;;;;;;;;;4995620;28;19910;-78
2022/06/13 01:29:26;;;;;;;4.38;1.80;;;;;;;;;;4995803;28;20026;-78
2022/06/13 01:31:59;;;;;;;4.53;2.05;;;;;;;;;;4994517;28;20019;-79
2022/06/13 01:34:49;;;;;;;4.05;1.90;;;;;;;;;;4995456;28;20471;-78
2022/06/13 01:37:32;;;;;;;6.40;1.85;;;;;;;;;;4993957;28;20034;-78
2022/06/13 01:40:11;;;;;;;4.55;2.20;;;;;;;;;;4995714;28;20030;-78
2022/06/13 01:42:49;;;;;;;3.85;2.00;;;;;;;;;;4993934;28;20112;-79
2022/06/13 01:45:28;;;;;;;4.55;1.90;;;;;;;;;;4995313;28;20038;-78
2022/06/13 01:48:02;;;;;;;4.57;1.77;;;;;;;;;;4994226;28;20030;-78
2022/06/13 01:51:02;;;;;;;10.18;2.40;;;;;;;;;;4993887;28;20475;-79
2022/06/13 01:53:39;;;;;;;4.47;1.90;;;;;;;;;;4993913;28;20148;-79
2022/06/13 01:56:13;;;;;;;5.13;2.30;;;;;;;;;;4995365;28;20394;-79
2022/06/13 01:58:51;;;;;;;4.63;2.33;;;;;;;;;;4994905;28;20137;-79
2022/06/13 02:01:37;;;;;;;4.38;2.03;;;;;;;;;;4994036;28;20065;-79
2022/06/13 02:04:17;;;;;;;3.35;2.03;;;;;;;;;;4993651;28;20024;-79
2022/06/13 02:06:49;;;;;;;3.83;2.20;;;;;;;;;;4993623;28;20022;-79
2022/06/13 02:09:19;;;;;;;4.75;2.53;;;;;;;;;;4993645;28;20022;-78
2022/06/13 02:11:48;;;;;;;3.33;1.80;;;;;;;;;;4993774;28;20036;-79
2022/06/13 02:14:37;;;;;;;5.35;2.00;;;;;;;;;;4993764;28;20026;-78
2022/06/13 02:17:14;;;;;;;5.15;1.83;;;;;;;;;;4977221;28;20113;-78
2022/06/13 02:19:39;;;;;;;4.70;2.05;;;;;;;;;;4993783;28;20430;-78
2022/06/13 02:22:10;;;;;;;4.45;2.10;;;;;;;;;;4993211;28;20022;-78
2022/06/13 02:24:42;;;;;;;3.95;1.95;;;;;;;;;;4994888;28;20050;-78
2022/06/13 02:27:09;;;;;;;3.55;1.92;;;;;;;;;;4993255;28;20026;-78
2022/06/13 02:29:42;;;;;;;4.97;2.22;;;;;;;;;;4994600;28;20026;-78
2022/06/13 02:32:07;;;;;;;5.18;2.20;;;;;;;;;;4993078;28;20018;-78
2022/06/13 02:34:40;;;;;;;3.47;2.00;;;;;;;;;;4994186;28;20030;-79
2022/06/13 02:37:18;;;;;;;2.77;2.00;;;;;;;;;;4993492;28;20026;-79
2022/06/13 02:39:53;;;;;;;4.07;2.30;;;;;;;;;;4976675;28;20478;-78
2022/06/13 02:42:55;;;;;;;3.33;1.77;;;;;;;;;;4993160;28;20034;-78
2022/06/13 02:45:40;;;;;;;5.90;2.00;;;;;;;;;;4975103;28;20046;-78
2022/06/13 02:48:16;;;;;;;5.88;2.30;;;;;;;;;;4993104;28;20030;-78
2022/06/13 02:50:50;;;;;;;5.20;2.30;;;;;;;;;;4992759;28;20072;-78
2022/06/13 02:53:39;;;;;;;5.00;2.17;;;;;;;;;;4993947;28;20026;-79
2022/06/13 02:56:20;;;;;;;5.05;2.28;;;;;;;;;;4992544;28;20033;-78
2022/06/13 02:59:07;;;;;;;4.65;2.10;;;;;;;;;;4992482;28;20034;-78
2022/06/13 03:01:38;;;;;;;5.30;2.10;;;;;;;;;;4993882;28;20097;-78
2022/06/13 03:04:30;;;;;;;6.60;2.03;;;;;;;;;;4992896;28;20072;-78
2022/06/13 03:07:03;;;;;;;5.57;2.08;;;;;;;;;;4992752;28;20033;-78
2022/06/13 03:09:35;;;;;;;3.80;1.85;;;;;;;;;;4976402;28;20070;-78
2022/06/13 03:12:06;;;;;;;4.88;2.10;;;;;;;;;;4994372;28;20041;-78
2022/06/13 03:14:46;;;;;;;5.65;2.20;;;;;;;;;;4992485;28;20058;-78
2022/06/13 03:17:14;;;;;;;4.03;1.88;;;;;;;;;;4992470;28;20065;-78
2022/06/13 03:19:51;;;;;;;4.53;2.05;;;;;;;;;;4993657;28;20037;-78
2022/06/13 03:22:25;;;;;;;4.65;2.17;;;;;;;;;;4992901;28;20026;-78
2022/06/13 03:24:52;;;;;;;5.07;2.65;;;;;;;;;;4976558;28;20022;-78
2022/06/13 03:27:39;;;;;;;3.67;2.10;;;;;;;;;;4992589;28;20050;-78
2022/06/13 03:30:12;;;;;;;3.03;2.05;;;;;;;;;;4992620;28;20527;-78
2022/06/13 03:33:39;;;;;;;3.35;1.90;;;;;;;;;;4992680;28;20474;-78
2022/06/13 03:35:34;;;;;;;4.53;1.95;;;;;;;;;;4993565;28;20101;-78
2022/06/13 03:38:02;;;;;;;4.38;2.00;;;;;;;;;;4992887;28;20434;-79
2022/06/13 03:40:28;;;;;;;5.82;2.38;;;;;;;;;;4993356;28;20026;-78
2022/06/13 03:42:57;;;;;;;2.95;1.70;;;;;;;;;;4996842;28;20137;-78
2022/06/13 03:46:09;;;;;;;3.28;1.73;;;;;;;;;;4996625;28;20022;-78
2022/06/13 03:49:04;;;;;;;6.88;2.20;;;;;;;;;;4940700;29;20030;-78
2022/06/13 03:51:33;;;;;;;5.82;2.40;;;;;;;;;;4993917;28;20533;-78
2022/06/13 03:54:10;;;;;;;5.80;2.25;;;;;;;;;;4979980;28;20046;-78
2022/06/13 03:56:41;;;;;;;4.70;2.22;;;;;;;;;;4996358;28;20029;-78
2022/06/13 03:59:18;;;;;;;3.92;1.80;;;;;;;;;;4996218;28;20033;-78
2022/06/13 04:01:57;;;;;;;5.35;2.38;;;;;;;;;;4996085;28;20037;-79
2022/06/13 04:04:25;;;;;;;5.80;2.33;;;;;;;;;;4996748;28;20022;-79
2022/06/13 04:06:51;;;;;;;4.10;2.08;;;;;;;;;;4996085;28;20467;-78
2022/06/13 04:09:25;;;;;;;4.82;2.53;;;;;;;;;;4996116;28;20072;-78
2022/06/13 04:12:02;;;;;;;3.20;2.17;;;;;;;;;;4979799;28;20500;-78
2022/06/13 04:14:45;;;;;;;6.38;2.58;;;;;;;;;;4996078;28;20034;-79
2022/06/13 04:17:27;;;;;;;6.83;2.83;;;;;;;;;;4979801;28;20076;-78
2022/06/13 04:20:06;;;;;;;9.38;3.13;;;;;;;;;;4997025;28;20056;-78
2022/06/13 04:22:49;;;;;;;6.43;2.85;;;;;;;;;;4995857;28;20130;-78
2022/06/13 04:25:25;;;;;;;5.53;3.00;;;;;;;;;;4979606;28;20026;-79
2022/06/13 04:28:12;;;;;;;7.80;3.17;;;;;;;;;;4995881;28;20097;-78
2022/06/13 04:30:41;;;;;;;6.40;3.20;;;;;;;;;;4996496;28;20450;-80
2022/06/13 04:33:33;;;;;;;5.88;3.00;;;;;;;;;;4995464;28;20038;-78
2022/06/13 04:35:58;;;;;;;7.95;2.45;;;;;;;;;;4996347;28;20148;-78
2022/06/13 04:38:24;;;;;;;5.43;2.30;;;;;;;;;;4995050;28;20121;-77
2022/06/13 04:40:54;;;;;;;6.05;2.50;;;;;;;;;;4994832;28;20499;-78
2022/06/13 04:43:23;;;;;;;6.47;2.28;;;;;;;;;;4995180;28;20414;-78
2022/06/13 04:45:55;;;;;;;8.35;2.92;;;;;;;;;;4995573;28;20026;-78
2022/06/13 04:48:21;;;;;;;5.93;2.65;;;;;;;;;;4995268;28;20026;-78
2022/06/13 04:50:49;;;;;;;6.22;2.55;;;;;;;;;;4994869;28;20386;-79
2022/06/13 04:53:44;;;;;;;4.45;2.45;;;;;;;;;;4993492;28;20510;-78
2022/06/13 04:56:09;;;;;;;3.65;2.50;;;;;;;;;;4981694;28;20195;-79
2022/06/13 04:58:37;;;;;;;8.27;3.20;;;;;;;;;;4994663;28;20580;-79
2022/06/13 05:01:06;;;;;;;13.68;2.70;;;;;;;;;;4994970;28;20049;-79
2022/06/13 05:03:36;;;;;;;7.97;2.90;;;;;;;;;;4978893;28;20462;-79
2022/06/13 05:06:05;;;;;;;8.70;2.90;;;;;;;;;;4979033;28;20546;-79
2022/06/13 05:08:35;;;;;;;8.82;3.50;;;;;;;;;;4996561;28;20031;-79
2022/06/13 05:11:12;;;;;;;6.00;2.90;;;;;;;;;;4995498;28;20038;-80
2022/06/13 05:13:37;;;;;;;11.77;3.00;;;;;;;;;;4995262;28;20030;-80
2022/06/13 05:16:45;;;;;;;10.52;3.28;;;;;;;;;;4996844;28;20026;-78
2022/06/13 05:19:34;;;;;;;5.53;2.60;;;;;;;;;;4982433;28;20022;-79
2022/06/13 05:22:15;;;;;;;7.50;3.00;;;;;;;;;;4996766;28;20500;-79
2022/06/13 05:25:18;;;;;;;5.82;2.40;;;;;;;;;;4996559;28;20030;-79
2022/06/13 05:27:43;;;;;;;7.30;2.90;;;;;;;;;;4983471;28;20057;-80
2022/06/13 05:30:18;;;;;;;7.45;2.67;;;;;;;;;;4978374;28;20125;-80
2022/06/13 05:32:44;;;;;;;7.78;2.78;;;;;;;;;;4978950;28;20041;-80
2022/06/13 05:35:30;;;;;;;10.95;2.90;;;;;;;;;;4995762;28;20051;-79
2022/06/13 05:37:57;;;;;;;8.35;3.17;;;;;;;;;;4994464;28;20022;-79
2022/06/13 05:40:23;;;;;;;5.78;2.92;;;;;;;;;;4978089;28;20038;-79
2022/06/13 05:42:49;;;;;;;6.28;2.13;;;;;;;;;;4994599;28;20055;-79
2022/06/13 05:45:18;;;;;;;8.73;2.95;;;;;;;;;;4994949;28;20026;-79
2022/06/13 05:47:45;;;;;;;8.25;3.15;;;;;;;;;;4980294;28;20046;-79
2022/06/13 05:50:19;;;;;;;4.40;2.42;;;;;;;;;;4980665;28;20030;-79
2022/06/13 05:52:44;;;;;;;4.55;2.47;;;;;;;;;;4994969;28;20105;-78
2022/06/13 05:55:11;;;;;;;7.00;2.60;;;;;;;;;;4996142;28;20430;-79
2022/06/13 05:57:38;;;;;;;5.22;2.80;;;;;;;;;;4996023;28;20041;-79
2022/06/13 06:00:05;;;;;;;4.45;2.15;;;;;;;;;;4994927;28;20057;-80
2022/06/13 06:02:31;;;;;;;6.13;2.38;;;;;;;;;;4979644;28;20023;-80
2022/06/13 06:04:56;;;;;;;9.23;2.60;;;;;;;;;;4995776;28;20174;-79
2022/06/13 06:07:21;;;;;;;7.45;2.45;;;;;;;;;;4977956;28;20038;-80
2022/06/13 06:09:47;;;;;;;4.90;2.65;;;;;;;;;;4978564;28;20030;-80
2022/06/13 06:12:12;;;;;;;7.80;2.17;;;;;;;;;;4993984;28;20038;-79
2022/06/13 06:14:38;;;;;;;3.53;1.90;;;;;;;;;;4978840;28;20105;-79
2022/06/13 06:17:03;;;;;;;7.28;2.15;;;;;;;;;;4994243;28;20030;-80
2022/06/13 06:19:29;;;;;;;2.58;1.60;;;;;;;;;;4977541;28;20035;-80
2022/06/13 06:21:55;;;;;;;3.13;1.95;;;;;;;;;;4994353;28;20041;-79
2022/06/13 06:24:20;;;;;;;3.80;1.85;;;;;;;;;;4996127;28;20027;-80
2022/06/13 06:26:45;;;;;;;3.67;1.90;;;;;;;;;;4996056;28;20035;-80
2022/06/13 06:29:11;;;;;;;3.15;1.75;;;;;;;;;;4979198;28;20037;-80
2022/06/13 06:31:36;;;;;;;7.10;2.10;;;;;;;;;;4995257;28;20418;-80
2022/06/13 06:34:02;;;;;;;3.80;1.92;;;;;;;;;;4994766;28;20039;-80
2022/06/13 06:36:28;;;;;;;3.75;1.95;;;;;;;;;;4992719;28;20026;-80
2022/06/13 06:38:53;;;;;;;2.92;1.70;;;;;;;;;;4994984;28;20122;-79
2022/06/13 06:41:19;;;;;;;6.28;2.13;;;;;;;;;;4993059;28;20108;-80
2022/06/13 06:43:44;;;;;;;4.07;1.80;;;;;;;;;;4976316;28;20061;-80
2022/06/13 06:46:11;;;;;;;3.10;1.35;;;;;;;;;;4992769;28;20482;-80
2022/06/13 06:48:36;;;;;;;3.53;1.55;;;;;;;;;;4992443;28;20022;-80
2022/06/13 06:51:08;;;;;;;4.40;1.77;;;;;;;;;;4976359;28;20110;-80
2022/06/13 07:01:46;;;;;;;3.03;1.40;;;;;;;;;;4993954;28;20454;-79
2022/06/13 07:04:11;;;;;;;2.15;1.30;;;;;;;;;;4960510;28;20046;-80
2022/06/13 07:06:38;;;;;;;2.92;1.60;;;;;;;;;;4976398;28;20034;-80
2022/06/13 07:09:04;;;;;;;1.98;1.60;;;;;;;;;;4994110;28;20030;-81
2022/06/13 07:12:02;;;;;;;2.38;1.42;;;;;;;;;;4994846;28;20042;-81
2022/06/13 07:14:22;;;;;;;1.70;1.30;;;;;;;;;;4990405;28;20038;-80
2022/06/13 07:16:48;;;;;;;2.28;1.58;;;;;;;;;;4994161;28;20029;-80
2022/06/13 07:19:13;;;;;;;2.53;1.75;;;;;;;;;;4993260;28;20034;-80
2022/06/13 07:21:38;;;;;;;3.08;1.30;;;;;;;;;;4961584;28;20038;-80
2022/06/13 07:24:04;;;;;;;2.28;1.40;;;;;;;;;;4975910;28;20030;-79
2022/06/13 07:26:31;;;;;;;2.35;1.52;;;;;;;;;;4992618;28;20443;-79
2022/06/13 07:28:56;;;;;;;2.38;1.20;;;;;;;;;;4993661;28;20531;-79
2022/06/13 07:31:27;;;;;;;4.90;1.60;;;;;;;;;;4993954;28;20062;-79
2022/06/13 07:33:53;;;;;;;3.13;1.40;;;;;;;;;;4992452;28;20042;-80
2022/06/13 07:36:18;;;;;;;3.95;1.75;;;;;;;;;;4993327;28;20038;-79
2022/06/13 07:38:45;;;;;;;4.97;1.45;;;;;;;;;;4976596;28;20030;-80
2022/06/13 07:41:20;;;;;;;2.95;1.58;;;;;;;;;;4992954;28;20035;-79
2022/06/13 07:43:45;;;;;;;2.83;1.58;;;;;;;;;;4992838;28;20039;-81
2022/06/13 07:46:11;;;;;;;4.07;2.05;;;;;;;;;;4978204;28;20041;-80
2022/06/13 07:48:37;;;;;;;7.13;1.80;;;;;;;;;;4978224;28;20030;-81
2022/06/13 07:51:05;;;;;;;5.30;1.80;;;;;;;;;;4993965;28;20031;-81
2022/06/13 07:53:31;;;;;;;3.88;1.60;;;;;;;;;;4996775;28;20029;-80
2022/06/13 07:55:57;;;;;;;3.65;1.63;;;;;;;;;;4978448;28;20069;-80
2022/06/13 07:58:26;;;;;;;4.22;1.73;;;;;;;;;;4992863;28;20438;-79
2022/06/13 08:00:53;;;;;;;3.60;1.48;;;;;;;;;;4993069;28;20317;-80
2022/06/13 08:03:26;;;;;;;6.40;1.48;;;;;;;;;;4976399;28;20027;-79
2022/06/13 08:05:52;;;;;;;7.80;1.70;;;;;;;;;;4992444;28;20054;-82
2022/06/13 08:08:18;;;;;;;4.72;1.67;;;;;;;;;;4949389;28;20034;-82
2022/06/13 08:10:44;;;;;;;6.13;2.10;;;;;;;;;;4992601;28;20018;-82
2022/06/13 08:13:12;;;;;;;6.93;2.00;;;;;;;;;;4976510;28;20038;-82
2022/06/13 08:15:38;;;;;;;5.70;2.10;;;;;;;;;;4966052;28;20033;-81
2022/06/13 08:18:04;;;;;;;18.80;2.08;;;;;;;;;;4987116;28;20022;-81
2022/06/13 08:20:29;;;;;;;2.95;1.42;;;;;;;;;;4978662;28;20568;-81
2022/06/13 08:22:58;;;;;;;5.90;1.98;;;;;;;;;;4960095;28;20026;-81
2022/06/13 08:25:27;;;;;;;3.58;1.60;;;;;;;;;;4970225;28;20025;-81
2022/06/13 08:27:54;;;;;;;3.30;1.60;;;;;;;;;;4978435;28;20049;-81
2022/06/13 08:30:19;;;;;;;4.80;1.65;;;;;;;;;;4996901;28;20505;-82
2022/06/13 08:32:45;;;;;;;2.35;1.25;;;;;;;;;;4979607;28;20038;-83
2022/06/13 08:35:12;;;;;;;3.20;1.73;;;;;;;;;;4978947;28;20046;-79
2022/06/13 08:37:37;;;;;;;4.43;1.60;;;;;;;;;;4980197;28;20117;-79
2022/06/13 08:40:04;;;;;;;6.82;1.90;;;;;;;;;;4979381;28;20058;-79
2022/06/13 08:42:53;;;;;;;5.55;1.77;;;;;;;;;;4995810;28;20546;-79
2022/06/13 08:45:32;;;;;;;8.23;2.00;;;;;;;;;;4995136;28;20034;-79
2022/06/13 08:48:12;;;;;;;3.25;1.27;;;;;;;;;;4996293;28;20033;-79
2022/06/13 08:50:58;;;;;;;3.50;1.50;;;;;;;;;;4994668;28;20049;-79
2022/06/13 08:53:28;;;;;;;3.47;1.55;;;;;;;;;;4995532;28;20432;-79
2022/06/13 08:56:04;;;;;;;6.47;1.25;;;;;;;;;;4995541;28;20090;-79
2022/06/13 08:58:38;;;;;;;2.35;1.40;;;;;;;;;;4995598;28;20134;-79
2022/06/13 09:01:07;;;;;;;2.10;1.10;;;;;;;;;;4995389;28;20035;-80
2022/06/13 09:03:54;;;;;;;2.38;1.20;;;;;;;;;;4994453;28;20031;-80
2022/06/13 09:06:43;;;;;;;5.97;1.33;;;;;;;;;;4995352;28;20026;-80
2022/06/13 09:09:31;;;;;;;3.55;1.13;;;;;;;;;;4978549;28;20022;-81
2022/06/13 09:12:01;;;;;;;4.50;1.00;;;;;;;;;;4978990;28;20034;-80
2022/06/13 09:14:37;;;;;;;4.43;1.13;;;;;;;;;;4994899;28;20038;-80
2022/06/13 09:17:31;;;;;;;3.63;1.65;;;;;;;;;;4996852;28;20487;-79
2022/06/13 09:20:23;;;;;;;1.67;1.08;;;;;;;;;;4995312;28;20052;-79
2022/06/13 09:23:00;;;;;;;2.97;1.20;;;;;;;;;;4994036;28;20105;-79
2022/06/13 09:25:43;;;;;;;1.92;1.15;;;;;;;;;;4977568;28;20387;-79
2022/06/13 09:28:31;;;;;;;2.17;1.05;;;;;;;;;;4994076;28;20050;-79
2022/06/13 09:31:09;;;;;;;3.45;1.17;;;;;;;;;;4995539;28;20037;-79
2022/06/13 09:33:38;;;;;;;1.45;1.00;;;;;;;;;;4993913;28;20053;-79
2022/06/13 09:36:17;;;;;;;2.08;0.82;;;;;;;;;;4993833;28;20158;-79
2022/06/13 09:38:59;;;;;;;1.88;1.15;;;;;;;;;;4994307;28;20030;-79
2022/06/13 09:41:43;;;;;;;2.72;0.85;;;;;;;;;;4993698;28;20045;-79
2022/06/13 09:44:08;;;;;;;4.10;1.05;;;;;;;;;;4994832;28;20051;-79
2022/06/13 09:47:08;;;;;;;1.75;1.33;;;;;;;;;;4993901;28;20117;-79
2022/06/13 09:50:04;;;;;;;1.70;0.90;;;;;;;;;;4977224;28;20042;-78
2022/06/13 09:53:03;;;;;;;1.65;1.00;;;;;;;;;;4977297;28;20081;-79
2022/06/13 09:55:53;;;;;;;2.15;0.85;;;;;;;;;;4987461;28;20120;-78
2022/06/13 09:58:40;;;;;;;2.08;0.70;;;;;;;;;;4993280;28;20018;-79
2022/06/13 10:01:11;;;;;;;1.20;0.65;;;;;;;;;;4996763;28;20079;-79
2022/06/13 10:04:16;;;;;;;2.10;0.98;;;;;;;;;;4995190;28;20173;-78
2022/06/13 10:06:59;;;;;;;3.10;1.00;;;;;;;;;;4985787;28;20093;-78
2022/06/13 10:09:50;;;;;;;2.00;0.95;;;;;;;;;;4977055;28;20113;-79
2022/06/13 10:12:47;;;;;;;1.02;0.80;;;;;;;;;;4993637;28;20026;-78
2022/06/13 10:15:19;;;;;;;1.88;0.90;;;;;;;;;;4943390;28;20054;-78
2022/06/13 10:18:06;;;;;;;1.35;0.90;;;;;;;;;;4996395;28;20088;-79
2022/06/13 10:20:41;;;;;;;1.40;0.93;;;;;;;;;;4996676;28;20027;-80
2022/06/13 10:23:37;;;;;;;2.70;0.88;;;;;;;;;;4994140;28;20045;-79
2022/06/13 10:26:20;;;;;;;1.95;0.93;;;;;;;;;;4994422;28;20038;-79
2022/06/13 10:29:16;;;;;;;1.00;0.80;;;;;;;;;;4994080;28;20038;-79
2022/06/13 10:32:03;;;;;;;2.72;1.00;;;;;;;;;;4978792;28;20041;-79
2022/06/13 10:34:52;;;;;;;1.77;1.08;;;;;;;;;;4995167;28;20072;-79
2022/06/13 10:37:54;;;;;;;1.95;0.80;;;;;;;;;;4993513;28;20029;-79
2022/06/13 10:40:20;;;;;;;1.75;0.88;;;;;;;;;;5007944;28;20053;-78
2022/06/13 10:42:45;;;;;;;2.78;0.85;;;;;;;;;;4989600;28;20038;-78
2022/06/13 10:45:13;;;;;;;1.23;0.85;;;;;;;;;;4996114;28;20042;-79
2022/06/13 10:47:52;;;;;;;3.17;1.17;;;;;;;;;;4995524;28;20328;-79
2022/06/13 10:50:26;;;;;;;1.58;0.93;;;;;;;;;;4995526;28;20041;-79
2022/06/13 10:52:53;;;;;;;1.48;0.90;;;;;;;;;;4997925;28;20026;-79
2022/06/13 10:55:25;;;;;;;1.10;0.90;;;;;;;;;;4994486;28;20031;-79
2022/06/13 10:57:57;;;;;;;1.88;1.00;;;;;;;;;;4979563;28;20027;-79
2022/06/13 11:00:25;;;;;;;1.70;0.90;;;;;;;;;;4994356;28;20566;-79
2022/06/13 11:02:51;;;;;;;2.38;0.98;;;;;;;;;;4977682;28;20042;-80
2022/06/13 11:05:19;;;;;;;2.30;0.88;;;;;;;;;;4978243;28;20156;-79
2022/06/13 11:07:48;;;;;;;2.40;1.10;;;;;;;;;;4992930;28;20077;-80
2022/06/13 11:10:35;;;;;;;12.88;1.90;;;;;;;;;;4993955;28;20023;-81
2022/06/13 11:13:03;;;;;;;1.63;0.90;;;;;;;;;;4977131;28;20026;-82
2022/06/13 11:24:18;;;;;;;2.47;1.20;;;;;;;;;;4994001;28;20451;-83
2022/06/13 11:29:33;;;;;;;7.53;1.88;;;;;;;;;;4993788;28;20117;-82
2022/06/13 11:32:00;;;;;;;1.75;0.90;;;;;;;;;;4993261;28;20530;-80
2022/06/13 11:34:34;;;;;;;2.72;1.02;;;;;;;;;;4994624;28;20109;-80
2022/06/13 11:37:05;;;;;;;2.88;1.20;;;;;;;;;;4978603;28;20327;-80
2022/06/13 11:39:36;;;;;;;3.75;1.25;;;;;;;;;;4976721;28;20089;-80
2022/06/13 11:42:03;;;;;;;3.67;1.20;;;;;;;;;;4992773;28;20034;-83
2022/06/13 11:44:29;;;;;;;3.90;1.10;;;;;;;;;;4992330;28;20054;-81
2022/06/13 11:47:04;;;;;;;5.03;1.58;;;;;;;;;;4992964;28;20050;-80
2022/06/13 11:49:41;;;;;;;2.10;1.20;;;;;;;;;;4994195;28;20185;-83
2022/06/13 11:55:30;;;;;;;3.17;1.00;;;;;;;;;;4992548;28;20034;-80
2022/06/13 11:58:00;;;;;;;4.60;1.38;;;;;;;;;;4992205;28;20501;-81
2022/06/13 12:00:51;;;;;;;12.38;0.88;;;;;;;;;;4975763;28;20030;-78
2022/06/13 12:03:27;;;;;;;3.50;1.05;;;;;;;;;;4975847;28;20023;-79
2022/06/13 12:06:11;;;;;;;6.05;1.20;;;;;;;;;;4996037;28;20041;-80
2022/06/13 12:08:38;;;;;;;2.17;1.00;;;;;;;;;;4980249;28;20543;-79
2022/06/13 12:11:21;;;;;;;2.38;0.90;;;;;;;;;;4980031;28;20042;-79
2022/06/13 12:13:47;;;;;;;;;;;;;;;;;;4979628;28;20026;-79
2022/06/13 12:16:22;;;;;;;4.38;1.05;;;;;;;;;;4995133;28;19913;-79
2022/06/13 12:19:02;;;;;;;4.18;1.02;;;;;;;;;;4996720;28;20486;-78
2022/06/13 12:21:53;;;;;;;2.13;0.88;;;;;;;;;;4978988;28;20057;-78
2022/06/13 12:24:24;;;;;;;2.63;1.10;;;;;;;;;;4995826;28;20430;-79
2022/06/13 12:27:14;;;;;;;1.92;0.73;;;;;;;;;;4995431;28;20030;-78
2022/06/13 12:30:33;;;;;;;1.85;0.98;;;;;;;;;;4996153;28;20046;-78
2022/06/13 12:33:14;;;;;;;1.35;0.70;;;;;;;;;;4955433;29;20027;-79
2022/06/13 12:35:47;;;;;;;1.27;0.70;;;;;;;;;;4978855;28;20045;-79
2022/06/13 12:38:37;;;;;;;3.17;1.30;;;;;;;;;;4996020;28;20445;-78
2022/06/13 12:41:44;;;;;;;4.40;0.90;;;;;;;;;;4996111;28;20069;-79
2022/06/13 12:44:37;;;;;;;1.42;0.60;;;;;;;;;;4982632;28;20057;-78
2022/06/13 12:47:23;;;;;;;2.95;0.93;;;;;;;;;;4996401;28;20383;-78
2022/06/13 12:50:01;;;;;;;0.85;0.60;;;;;;;;;;4996054;28;20098;-77
2022/06/13 12:52:56;;;;;;;2.58;0.80;;;;;;;;;;4996328;28;20034;-78
2022/06/13 12:55:40;;;;;;;1.90;0.90;;;;;;;;;;4994804;28;20033;-78
2022/06/13 12:58:14;;;;;;;2.38;0.90;;;;;;;;;;4994572;28;20037;-78
2022/06/13 13:00:50;;;;;;;1.60;0.85;;;;;;;;;;4978597;28;20109;-78
2022/06/13 13:03:39;;;;;;;2.35;0.80;;;;;;;;;;4995190;28;20356;-78
2022/06/13 13:06:52;;;;;;;4.28;0.80;;;;;;;;;;4994511;28;20085;-79
2022/06/13 13:09:23;;;;;;;0.77;0.60;;;;;;;;;;4994063;28;20424;-79
2022/06/13 13:12:14;;;;;;;1.60;0.80;;;;;;;;;;4995674;28;20030;-79
2022/06/13 13:14:42;;;;;;;2.92;0.73;;;;;;;;;;4993222;28;20034;-80
2022/06/13 13:19:54;;;;;;;0.88;0.60;;;;;;;;;;4984610;23;20055;-79
2022/06/13 13:22:52;;;;;;;3.78;1.02;;;;;;;;;;4975044;28;20089;-78
2022/06/13 13:25:48;;;;;;;1.25;0.70;;;;;;;;;;4976264;28;20102;-77
2022/06/13 13:28:42;;;;;;;3.67;1.10;;;;;;;;;;4969896;28;20038;-79
2022/06/13 13:31:23;;;;;;;1.10;1.00;;;;;;;;;;4991295;28;20516;-79
2022/06/13 13:33:59;;;;;;;1.05;0.70;;;;;;;;;;4974624;28;20473;-79
2022/06/13 13:36:32;;;;;;;2.53;0.85;;;;;;;;;;4974688;28;20054;-79
2022/06/13 13:39:03;;;;;;;2.00;1.10;;;;;;;;;;4990930;28;20379;-78
2022/06/13 13:41:37;;;;;;;2.95;0.80;;;;;;;;;;4992120;28;20023;-78
2022/06/13 13:44:10;;;;;;;1.05;0.70;;;;;;;;;;4977362;28;20071;-78
2022/06/13 13:46:40;;;;;;;2.72;0.70;;;;;;;;;;4992115;28;20031;-79
2022/06/13 13:49:20;;;;;;;1.27;0.80;;;;;;;;;;4974747;28;20046;-80
2022/06/13 13:51:52;;;;;;;0.80;0.70;;;;;;;;;;4991515;28;20474;-79
2022/06/13 13:54:40;;;;;;;2.00;0.60;;;;;;;;;;4974837;28;20035;-80
2022/06/13 13:57:14;;;;;;;2.55;0.90;;;;;;;;;;4990914;28;20033;-80
2022/06/13 13:59:44;;;;;;;1.63;0.80;;;;;;;;;;4955778;28;20034;-80
2022/06/13 14:02:28;;;;;;;5.10;0.90;;;;;;;;;;4978699;28;20470;-80
2022/06/13 14:05:19;;;;;;;10.02;1.02;;;;;;;;;;4976316;28;20434;-78
2022/06/13 14:07:54;;;;;;;2.33;1.08;;;;;;;;;;4974404;28;20450;-81
2022/06/13 14:10:22;;;;;;;3.33;1.40;;;;;;;;;;4959586;28;20462;-80
2022/06/13 14:13:06;;;;;;;4.47;1.00;;;;;;;;;;4958967;28;20121;-80
2022/06/13 14:15:31;;;;;;;;;;;;;;;;;;4977363;28;20085;-81
2022/06/13 14:17:57;;;;;;;2.42;1.00;;;;;;;;;;4974504;28;20251;-80
2022/06/13 14:20:29;;;;;;;5.50;1.08;;;;;;;;;;4959431;28;20505;-81
2022/06/13 14:23:06;;;;;;;1.60;0.80;;;;;;;;;;4975451;28;20041;-79
2022/06/13 14:25:39;;;;;;;4.20;1.02;;;;;;;;;;4973745;28;20108;-80
2022/06/13 14:28:11;;;;;;;3.95;1.38;;;;;;;;;;4956315;29;20023;-81
2022/06/13 14:36:54;;;;;;;5.32;1.98;;;;;;;;;;4956784;29;20034;-80
2022/06/13 14:39:41;;;;;;;5.10;1.17;;;;;;;;;;4956476;28;20122;-82
2022/06/13 14:42:17;;;;;;;3.85;1.30;;;;;;;;;;4972649;28;20023;-80
2022/06/13 14:44:52;;;;;;;6.07;1.10;;;;;;;;;;4975910;28;20025;-81
2022/06/13 14:47:55;;;;;;;3.17;0.98;;;;;;;;;;4974432;28;20114;-82
2022/06/13 14:50:40;;;;;;;5.35;1.08;;;;;;;;;;4974731;28;20066;-81
2022/06/13 14:53:34;;;;;;;7.32;1.10;;;;;;;;;;4975576;28;20460;-81
2022/06/13 14:56:09;;;;;;;5.03;1.00;;;;;;;;;;4974870;28;20459;-81
2022/06/13 14:58:49;;;;;;;3.05;1.25;;;;;;;;;;4975243;28;20094;-82
2022/06/13 15:01:23;;;;;;;3.58;1.55;;;;;;;;;;4974790;28;20023;-84
2022/06/13 15:04:05;;;;;;;3.65;1.38;;;;;;;;;;4973337;28;20023;-83
2022/06/13 15:06:32;;;;;;;1.98;0.98;;;;;;;;;;4957994;28;20023;-83
2022/06/13 15:09:19;;;;;;;1.27;0.90;;;;;;;;;;4955335;29;20141;-84
2022/06/13 15:11:51;;;;;;;2.92;1.20;;;;;;;;;;4955868;29;20026;-85
2022/06/13 15:14:29;;;;;;;8.27;1.20;;;;;;;;;;4956393;29;20031;-83
2022/06/13 15:16:55;;;;;;;3.28;1.80;;;;;;;;;;4956790;29;20030;-83
2022/06/13 15:19:23;;;;;;;2.03;1.13;;;;;;;;;;4955385;29;20522;-85
2022/06/13 15:21:52;;;;;;;2.13;1.13;;;;;;;;;;4939183;29;20039;-83
2022/06/13 15:24:17;;;;;;;2.88;1.08;;;;;;;;;;4956397;29;20123;-84
2022/06/13 15:26:46;;;;;;;2.53;0.90;;;;;;;;;;4955318;29;20197;-83
2022/06/13 15:29:16;;;;;;;2.13;1.13;;;;;;;;;;4954573;29;20028;-83
2022/06/13 15:31:48;;;;;;;2.85;1.55;;;;;;;;;;4955688;29;20047;-83
2022/06/13 15:34:29;;;;;;;3.00;1.13;;;;;;;;;;4938467;29;20031;-82
2022/06/13 15:37:04;;;;;;;2.20;1.00;;;;;;;;;;4956080;28;20051;-83
2022/06/13 15:39:33;;;;;;;2.33;0.85;;;;;;;;;;4959917;29;20383;-83
2022/06/13 15:42:03;;;;;;;3.65;1.08;;;;;;;;;;4959652;29;20419;-82
2022/06/13 15:44:31;;;;;;;3.75;1.40;;;;;;;;;;4945693;29;20023;-84
2022/06/13 15:46:59;;;;;;;1.77;1.20;;;;;;;;;;4959841;29;20027;-81
2022/06/13 15:49:29;;;;;;;1.15;0.90;;;;;;;;;;4943036;29;20075;-81
2022/06/13 15:52:17;;;;;;;4.30;1.50;;;;;;;;;;4941614;29;20047;-83
2022/06/13 15:54:55;;;;;;;2.17;1.10;;;;;;;;;;4957245;29;20344;-82
2022/06/13 15:57:21;;;;;;;2.30;1.25;;;;;;;;;;4958510;28;20027;-82
2022/06/13 15:59:52;;;;;;;5.07;1.52;;;;;;;;;;4941037;29;20395;-83
2022/06/13 16:02:21;;;;;;;3.30;1.60;;;;;;;;;;4958220;28;20073;-83
2022/06/13 16:04:47;;;;;;;3.75;1.35;;;;;;;;;;4960057;29;20026;-88